createdAt,value
2023-05-19T00:00:31.369Z,1.30
2023-05-19T00:05:41.118Z,1.80
2023-05-19T00:10:45.246Z,1.30
2023-05-19T00:15:49.561Z,1.15
2023-05-19T00:20:53.615Z,1.13
2023-05-19T00:25:57.278Z,1.13
2023-05-19T00:31:02.375Z,0.90
2023-05-19T00:36:07.296Z,1.33
2023-05-19T00:41:11.459Z,0.85
2023-05-19T00:46:15.426Z,0.95
2023-05-19T00:51:19.333Z,1.00
2023-05-19T00:56:23.438Z,0.95
2023-05-19T01:01:28.234Z,0.90
2023-05-19T01:06:31.846Z,1.15
2023-05-19T01:11:35.849Z,0.80
2023-05-19T01:16:44.315Z,0.88
2023-05-19T01:22:23.168Z,0.80
2023-05-19T01:27:50.222Z,0.77
2023-05-19T01:33:03.027Z,0.75
2023-05-19T01:38:09.767Z,0.88
2023-05-19T01:43:18.300Z,0.90
2023-05-19T01:48:23.756Z,0.73
2023-05-19T01:53:27.437Z,1.02
2023-05-19T01:58:47.782Z,0.95
2023-05-19T02:04:06.068Z,0.82
2023-05-19T02:09:16.459Z,1.15
2023-05-19T02:14:46.072Z,1.15
2023-05-19T02:19:50.142Z,1.27
2023-05-19T02:24:56.726Z,1.10
2023-05-19T02:30:00.309Z,1.35
2023-05-19T02:35:04.386Z,1.00
2023-05-19T02:40:08.740Z,1.10
2023-05-19T02:45:12.464Z,0.93
2023-05-19T02:50:18.784Z,0.65
2023-05-19T02:55:22.236Z,0.90
2023-05-19T03:00:26.394Z,0.95
2023-05-19T03:05:33.239Z,1.17
2023-05-19T03:10:37.118Z,1.05
2023-05-19T03:15:40.748Z,1.02
2023-05-19T03:20:44.964Z,1.05
2023-05-19T03:25:48.154Z,1.25
2023-05-19T03:30:52.368Z,1.27
2023-05-19T03:35:59.625Z,1.15
2023-05-19T03:41:06.294Z,1.58
2023-05-19T03:46:11.047Z,1.40
2023-05-19T03:51:30.910Z,1.38
2023-05-19T03:56:54.484Z,1.35
2023-05-19T04:01:58.912Z,2.35
2023-05-19T04:07:02.994Z,1.50
2023-05-19T04:12:07.062Z,1.63
2023-05-19T04:17:10.440Z,1.63
2023-05-19T04:22:14.161Z,1.45
2023-05-19T04:27:19.034Z,1.77
2023-05-19T04:32:23.431Z,1.40
2023-05-19T04:37:28.000Z,1.83
2023-05-19T04:42:33.459Z,1.80
2023-05-19T04:47:39.100Z,1.55
2023-05-19T04:52:42.972Z,1.10
2023-05-19T04:57:47.430Z,1.58
2023-05-19T05:02:51.768Z,2.00
2023-05-19T05:07:57.735Z,2.17
2023-05-19T05:13:04.076Z,1.60
2023-05-19T05:18:09.258Z,1.67
2023-05-19T05:23:17.089Z,2.05
2023-05-19T05:28:23.608Z,2.00
2023-05-19T05:33:27.612Z,2.00
2023-05-19T05:38:32.534Z,2.13
2023-05-19T05:43:36.897Z,2.00
2023-05-19T05:48:43.296Z,2.00
2023-05-19T05:53:53.245Z,2.03
2023-05-19T05:58:59.676Z,2.65
2023-05-19T06:04:03.603Z,1.90
2023-05-19T06:09:08.357Z,2.38
2023-05-19T06:14:13.794Z,1.77
2023-05-19T06:19:35.826Z,2.45
2023-05-19T06:24:41.599Z,1.92
2023-05-19T06:29:46.695Z,3.30
2023-05-19T06:34:54.437Z,1.80
2023-05-19T06:39:59.085Z,1.65
2023-05-19T06:45:03.896Z,1.92
2023-05-19T06:50:07.989Z,2.15
2023-05-19T06:55:13.571Z,1.67
2023-05-19T07:00:18.832Z,2.00
2023-05-19T07:05:25.360Z,2.17
2023-05-19T07:10:35.255Z,2.67
2023-05-19T07:15:43.494Z,1.90
2023-05-19T07:20:47.167Z,2.47
2023-05-19T07:25:56.742Z,2.35
2023-05-19T07:31:01.272Z,3.15
2023-05-19T07:36:05.333Z,2.45
2023-05-19T07:41:09.170Z,1.95
2023-05-19T07:46:12.918Z,2.60
2023-05-19T07:51:16.986Z,2.20
2023-05-19T07:56:22.093Z,2.28
2023-05-19T08:01:26.736Z,2.10
2023-05-19T08:06:30.944Z,1.80
2023-05-19T08:11:34.586Z,2.17
2023-05-19T08:16:37.929Z,1.65
2023-05-19T08:21:42.876Z,2.15
2023-05-19T08:26:46.698Z,1.67
2023-05-19T08:31:50.925Z,2.17
2023-05-19T08:36:58.116Z,2.53
2023-05-19T08:42:02.779Z,2.05
2023-05-19T08:47:08.403Z,2.45
2023-05-19T08:52:21.235Z,2.05
2023-05-19T08:57:29.872Z,1.67
2023-05-19T09:02:34.420Z,2.40
2023-05-19T09:07:38.729Z,1.52
2023-05-19T09:12:46.813Z,1.90
2023-05-19T09:17:50.485Z,2.47
2023-05-19T09:22:54.315Z,2.63
2023-05-19T09:27:58.144Z,1.80
2023-05-19T09:33:01.786Z,2.15
2023-05-19T09:38:06.644Z,2.33
2023-05-19T09:43:10.979Z,2.20
2023-05-19T09:48:16.904Z,2.25
2023-05-19T09:53:22.826Z,1.92
2023-05-19T09:58:27.452Z,1.60
2023-05-19T10:03:33.840Z,2.83
2023-05-19T10:08:40.360Z,2.65
2023-05-19T10:13:48.051Z,2.40
2023-05-19T10:18:56.033Z,2.03
2023-05-19T10:24:00.809Z,2.30
2023-05-19T10:29:29.287Z,1.95
2023-05-19T10:35:05.655Z,2.00
2023-05-19T10:45:24.772Z,2.28
2023-05-19T10:50:29.936Z,1.98
2023-05-19T10:55:53.706Z,2.10
2023-05-19T11:01:08.326Z,2.72
2023-05-19T11:06:36.539Z,1.92
2023-05-19T11:11:50.208Z,2.10
2023-05-19T11:16:59.154Z,2.42
2023-05-19T11:22:14.091Z,2.53
2023-05-19T11:27:37.860Z,2.75
2023-05-19T11:32:46.849Z,2.63
2023-05-19T11:37:52.973Z,3.35
2023-05-19T11:42:56.807Z,2.88
2023-05-19T11:48:03.017Z,2.78
2023-05-19T11:58:10.048Z,4.00
2023-05-19T12:03:13.984Z,3.53
2023-05-19T12:08:21.893Z,3.20
2023-05-19T12:13:26.457Z,2.10
2023-05-19T12:18:34.675Z,1.98
2023-05-19T12:23:39.650Z,2.30
2023-05-19T12:28:46.354Z,2.08
2023-05-19T12:34:08.568Z,2.55
2023-05-19T12:39:13.526Z,1.85
2023-05-19T12:44:18.921Z,1.73
2023-05-19T12:49:22.943Z,1.58
2023-05-19T12:54:27.898Z,1.95
2023-05-19T12:59:38.904Z,2.35
2023-05-19T13:05:01.761Z,2.10
2023-05-19T13:10:06.886Z,2.90
2023-05-19T13:15:10.932Z,2.03
2023-05-19T13:20:15.777Z,2.42
2023-05-19T13:25:19.182Z,2.40
2023-05-19T13:30:24.518Z,3.53
2023-05-19T13:35:28.797Z,3.35
2023-05-19T13:40:35.200Z,3.40
2023-05-19T13:45:39.799Z,2.03
2023-05-19T13:50:43.553Z,2.17
2023-05-19T13:55:48.653Z,1.77
2023-05-19T14:00:54.993Z,1.90
2023-05-19T14:05:58.935Z,1.73
2023-05-19T14:11:02.923Z,1.98
2023-05-19T14:16:07.344Z,2.20
2023-05-19T14:21:11.040Z,2.03
2023-05-19T14:26:15.376Z,1.70
2023-05-19T14:31:19.265Z,1.83
2023-05-19T14:36:23.295Z,1.83
2023-05-19T14:41:26.633Z,2.50
2023-05-19T14:46:30.528Z,2.08
2023-05-19T14:51:33.939Z,1.75
2023-05-19T14:56:37.665Z,1.50
2023-05-19T15:01:41.974Z,2.22
2023-05-19T15:06:48.153Z,1.50
2023-05-19T15:11:56.327Z,1.35
2023-05-19T15:17:00.320Z,1.35
2023-05-19T15:22:04.502Z,1.42
2023-05-19T15:27:09.148Z,1.73
2023-05-19T15:32:13.031Z,1.48
2023-05-19T15:37:17.255Z,1.48
2023-05-19T15:42:21.125Z,1.65
2023-05-19T15:47:24.800Z,1.60
2023-05-19T15:52:28.329Z,1.83
2023-05-19T15:57:32.281Z,1.67
2023-05-19T16:02:36.254Z,1.70
2023-05-19T16:07:42.342Z,1.70
2023-05-19T16:12:46.569Z,1.57
2023-05-19T16:17:50.622Z,1.90
2023-05-19T16:22:55.859Z,2.92
2023-05-19T16:27:59.439Z,7.85
2023-05-19T16:33:02.786Z,4.45
2023-05-19T16:38:06.915Z,1.70
2023-05-19T16:43:12.147Z,2.00
2023-05-19T16:48:16.200Z,2.00
2023-05-19T16:53:20.371Z,7.88
2023-05-19T16:58:24.174Z,3.63
2023-05-19T17:03:28.014Z,5.05
2023-05-19T17:08:31.734Z,5.22
2023-05-19T17:13:36.853Z,3.55
2023-05-19T17:18:41.127Z,1.75
2023-05-19T17:23:44.889Z,1.45
2023-05-19T17:28:48.925Z,1.45
2023-05-19T17:33:52.513Z,1.38
2023-05-19T17:45:12.178Z,1.00
2023-05-19T17:50:15.609Z,1.02
2023-05-19T17:55:20.363Z,0.90
2023-05-19T18:00:25.382Z,0.98
2023-05-19T18:05:29.268Z,1.15
2023-05-19T18:10:37.964Z,0.93
2023-05-19T18:15:42.305Z,1.08
2023-05-19T18:20:45.986Z,1.35
2023-05-19T18:25:51.960Z,0.88
2023-05-19T18:31:06.419Z,1.08
2023-05-19T18:36:09.601Z,1.38
2023-05-19T18:41:14.303Z,0.73
2023-05-19T18:46:21.064Z,0.95
2023-05-19T18:51:24.227Z,1.38
2023-05-19T18:56:31.396Z,1.20
2023-05-19T19:01:35.350Z,1.13
2023-05-19T19:06:38.939Z,1.58
2023-05-19T19:11:42.640Z,1.40
2023-05-19T19:16:46.778Z,1.23
2023-05-19T19:21:50.311Z,1.15
2023-05-19T19:26:53.874Z,1.10
2023-05-19T19:31:57.469Z,0.75
2023-05-19T19:37:01.208Z,0.70
2023-05-19T19:42:05.175Z,1.02
2023-05-19T19:47:09.092Z,0.90
2023-05-19T19:52:12.881Z,0.73
2023-05-19T19:57:19.689Z,0.60
2023-05-19T20:02:23.270Z,0.90
2023-05-19T20:07:27.461Z,0.85
2023-05-19T20:12:30.969Z,0.98
2023-05-19T20:17:35.029Z,1.20
2023-05-19T20:22:39.961Z,0.70
2023-05-19T20:27:43.120Z,0.77
2023-05-19T20:32:47.005Z,0.80
2023-05-19T20:37:50.564Z,1.10
2023-05-19T20:42:54.090Z,1.00
2023-05-19T20:47:59.708Z,0.50
2023-05-19T20:53:03.575Z,0.65
2023-05-19T20:58:06.745Z,1.15
2023-05-19T21:03:11.865Z,0.90
2023-05-19T21:08:14.997Z,0.70
2023-05-19T21:13:19.000Z,0.63
2023-05-19T21:18:22.713Z,0.50
2023-05-19T21:23:26.304Z,0.70
2023-05-19T21:28:29.844Z,0.70
2023-05-19T21:33:33.313Z,0.65
2023-05-19T21:38:37.059Z,0.50
2023-05-19T21:43:43.209Z,0.55
2023-05-19T21:48:47.729Z,0.60
2023-05-19T21:53:51.101Z,0.73
2023-05-19T21:58:54.159Z,0.63
2023-05-19T22:03:57.980Z,0.73
2023-05-19T22:09:02.895Z,1.67
2023-05-19T22:14:07.127Z,1.75
2023-05-19T22:19:11.583Z,0.88
2023-05-19T22:24:15.360Z,0.70
2023-05-19T22:29:18.923Z,0.60
2023-05-19T22:34:22.412Z,1.02
2023-05-19T22:39:25.987Z,1.00
2023-05-19T22:44:29.826Z,1.00
2023-05-19T22:49:33.078Z,0.70
2023-05-19T22:54:36.907Z,0.70
2023-05-19T22:59:41.530Z,0.88
2023-05-19T23:04:44.985Z,0.88
2023-05-19T23:09:49.101Z,0.90
2023-05-19T23:14:53.706Z,1.10
2023-05-19T23:19:57.340Z,0.70
2023-05-19T23:25:02.236Z,0.50
2023-05-19T23:30:06.312Z,1.00
2023-05-19T23:35:17.531Z,1.58
2023-05-19T23:40:21.360Z,0.80
2023-05-19T23:45:24.803Z,1.13
2023-05-19T23:50:27.823Z,0.70
2023-05-19T23:55:31.539Z,0.85
